sensor_id;sensor_type;location;lat;lon;timestamp;pressure;altitude;pressure_sealevel;temperature;humidity
44127;BME280;29786;50.798;7.302;2023-07-31T00:00:28;98910;;;16.91;100
44127;BME280;29786;50.798;7.302;2023-07-31T00:01:27;98910;;;16.95;100
44127;BME280;29786;50.798;7.302;2023-07-31T00:02:28;98920;;;16.92;100
44127;BME280;29786;50.798;7.302;2023-07-31T00:03:27;98920;;;16.95;100
44127;BME280;29786;50.798;7.302;2023-07-31T00:04:28;98920;;;16.95;100
44127;BME280;29786;50.798;7.302;2023-07-31T00:05:28;98910;;;16.95;100
44127;BME280;29786;50.798;7.302;2023-07-31T00:06:28;98910;;;16.95;100
44127;BME280;29786;50.798;7.302;2023-07-31T00:07:27;98910;;;16.93;100
44127;BME280;29786;50.798;7.302;2023-07-31T00:08:27;98910;;;16.95;100
44127;BME280;29786;50.798;7.302;2023-07-31T00:09:27;98900;;;16.95;100
44127;BME280;29786;50.798;7.302;2023-07-31T00:10:27;98910;;;16.95;100
44127;BME280;29786;50.798;7.302;2023-07-31T00:11:28;98900;;;16.96;100
44127;BME280;29786;50.798;7.302;2023-07-31T00:12:27;98910;;;16.99;100
44127;BME280;29786;50.798;7.302;2023-07-31T00:13:29;98900;;;17.02;100
44127;BME280;29786;50.798;7.302;2023-07-31T00:14:27;98910;;;17.02;100
44127;BME280;29786;50.798;7.302;2023-07-31T00:15:27;98900;;;17.03;100
44127;BME280;29786;50.798;7.302;2023-07-31T00:16:28;98900;;;17.04;100
44127;BME280;29786;50.798;7.302;2023-07-31T00:17:28;98900;;;17.04;100
44127;BME280;29786;50.798;7.302;2023-07-31T00:18:27;98900;;;17.04;100
44127;BME280;29786;50.798;7.302;2023-07-31T00:19:27;98900;;;17.03;100
44127;BME280;29786;50.798;7.302;2023-07-31T00:20:28;98900;;;17.03;100
44127;BME280;29786;50.798;7.302;2023-07-31T00:21:27;98900;;;17.02;100
44127;BME280;29786;50.798;7.302;2023-07-31T00:22:27;98900;;;17;100
44127;BME280;29786;50.798;7.302;2023-07-31T00:23:27;98890;;;17.03;100
44127;BME280;29786;50.798;7.302;2023-07-31T00:24:28;98900;;;17.03;100
44127;BME280;29786;50.798;7.302;2023-07-31T00:25:27;98890;;;17.03;100
44127;BME280;29786;50.798;7.302;2023-07-31T00:26:27;98900;;;17.04;100
44127;BME280;29786;50.798;7.302;2023-07-31T00:27:27;98890;;;17.08;100
44127;BME280;29786;50.798;7.302;2023-07-31T00:28:27;98900;;;17.03;100
44127;BME280;29786;50.798;7.302;2023-07-31T00:29:27;98900;;;17.04;100
44127;BME280;29786;50.798;7.302;2023-07-31T00:30:27;98900;;;17.04;100
44127;BME280;29786;50.798;7.302;2023-07-31T00:31:27;98900;;;17.03;100
44127;BME280;29786;50.798;7.302;2023-07-31T00:32:27;98900;;;17.03;100
44127;BME280;29786;50.798;7.302;2023-07-31T00:33:27;98900;;;17.04;100
44127;BME280;29786;50.798;7.302;2023-07-31T00:34:27;98900;;;17.06;100
44127;BME280;29786;50.798;7.302;2023-07-31T00:35:27;98900;;;17.04;100
44127;BME280;29786;50.798;7.302;2023-07-31T00:36:27;98910;;;17.04;100
44127;BME280;29786;50.798;7.302;2023-07-31T00:37:27;98900;;;17.03;100
44127;BME280;29786;50.798;7.302;2023-07-31T00:38:27;98900;;;17.01;100
44127;BME280;29786;50.798;7.302;2023-07-31T00:39:27;98910;;;17.04;100
44127;BME280;29786;50.798;7.302;2023-07-31T00:40:28;98900;;;17.06;100
44127;BME280;29786;50.798;7.302;2023-07-31T00:41:28;98910;;;17.06;100
44127;BME280;29786;50.798;7.302;2023-07-31T00:42:27;98900;;;17.04;100
44127;BME280;29786;50.798;7.302;2023-07-31T00:43:28;98900;;;17.08;100
44127;BME280;29786;50.798;7.302;2023-07-31T00:44:27;98900;;;17.08;100
44127;BME280;29786;50.798;7.302;2023-07-31T00:45:28;98900;;;17.09;100
44127;BME280;29786;50.798;7.302;2023-07-31T00:46:27;98900;;;17.11;100
44127;BME280;29786;50.798;7.302;2023-07-31T00:47:28;98890;;;17.12;100
44127;BME280;29786;50.798;7.302;2023-07-31T00:48:27;98900;;;17.11;100
44127;BME280;29786;50.798;7.302;2023-07-31T00:49:27;98900;;;17.12;100
44127;BME280;29786;50.798;7.302;2023-07-31T00:50:28;98900;;;17.14;100
44127;BME280;29786;50.798;7.302;2023-07-31T00:51:27;98900;;;17.11;100
44127;BME280;29786;50.798;7.302;2023-07-31T00:52:27;98900;;;17.12;100
44127;BME280;29786;50.798;7.302;2023-07-31T00:53:27;98890;;;17.1;100
44127;BME280;29786;50.798;7.302;2023-07-31T00:54:28;98900;;;17.11;100
44127;BME280;29786;50.798;7.302;2023-07-31T00:55:28;98900;;;17.08;100
44127;BME280;29786;50.798;7.302;2023-07-31T00:56:28;98900;;;17.07;100
44127;BME280;29786;50.798;7.302;2023-07-31T00:57:27;98900;;;17.1;100
44127;BME280;29786;50.798;7.302;2023-07-31T00:58:29;98900;;;17.11;100
44127;BME280;29786;50.798;7.302;2023-07-31T00:59:27;98890;;;17.12;100
44127;BME280;29786;50.798;7.302;2023-07-31T01:00:27;98890;;;17.14;100
44127;BME280;29786;50.798;7.302;2023-07-31T01:01:27;98900;;;17.14;100
44127;BME280;29786;50.798;7.302;2023-07-31T01:02:27;98900;;;17.15;100
44127;BME280;29786;50.798;7.302;2023-07-31T01:03:27;98900;;;17.15;100
44127;BME280;29786;50.798;7.302;2023-07-31T01:04:28;98890;;;17.17;100
44127;BME280;29786;50.798;7.302;2023-07-31T01:05:30;98890;;;17.16;100
44127;BME280;29786;50.798;7.302;2023-07-31T01:06:30;98890;;;17.11;100
44127;BME280;29786;50.798;7.302;2023-07-31T01:07:34;98890;;;17.1;100
44127;BME280;29786;50.798;7.302;2023-07-31T01:08:32;98890;;;17.1;100
44127;BME280;29786;50.798;7.302;2023-07-31T01:10:26;98890;;;17.1;100
44127;BME280;29786;50.798;7.302;2023-07-31T01:10:29;98880;;;17.12;100
44127;BME280;29786;50.798;7.302;2023-07-31T01:11:28;98890;;;17.12;100
44127;BME280;29786;50.798;7.302;2023-07-31T01:12:28;98890;;;17.15;100
44127;BME280;29786;50.798;7.302;2023-07-31T01:13:28;98880;;;17.17;100
44127;BME280;29786;50.798;7.302;2023-07-31T01:14:27;98890;;;17.12;100
44127;BME280;29786;50.798;7.302;2023-07-31T01:15:27;98890;;;17.12;100
44127;BME280;29786;50.798;7.302;2023-07-31T01:16:27;98890;;;17.14;100
44127;BME280;29786;50.798;7.302;2023-07-31T01:17:28;98890;;;17.15;100
44127;BME280;29786;50.798;7.302;2023-07-31T01:18:27;98900;;;17.15;100
44127;BME280;29786;50.798;7.302;2023-07-31T01:19:28;98890;;;17.16;100
44127;BME280;29786;50.798;7.302;2023-07-31T01:20:27;98900;;;17.14;100
44127;BME280;29786;50.798;7.302;2023-07-31T01:21:30;98880;;;17.14;100
44127;BME280;29786;50.798;7.302;2023-07-31T01:22:39;98880;;;17.12;100
44127;BME280;29786;50.798;7.302;2023-07-31T01:23:34;98890;;;17.11;100
44127;BME280;29786;50.798;7.302;2023-07-31T01:24:30;98880;;;17.11;100
44127;BME280;29786;50.798;7.302;2023-07-31T01:26:28;98880;;;17.08;100
44127;BME280;29786;50.798;7.302;2023-07-31T01:27:29;98880;;;17.11;100
44127;BME280;29786;50.798;7.302;2023-07-31T01:29:01;98890;;;17.11;100
44127;BME280;29786;50.798;7.302;2023-07-31T01:29:32;98890;;;17.12;100
44127;BME280;29786;50.798;7.302;2023-07-31T01:30:28;98890;;;17.07;100
44127;BME280;29786;50.798;7.302;2023-07-31T01:31:26;98880;;;17.08;100
44127;BME280;29786;50.798;7.302;2023-07-31T01:32:29;98880;;;17.08;100
44127;BME280;29786;50.798;7.302;2023-07-31T01:33:28;98880;;;17.08;100
44127;BME280;29786;50.798;7.302;2023-07-31T01:34:28;98880;;;17.1;100
44127;BME280;29786;50.798;7.302;2023-07-31T01:35:27;98880;;;17.1;100
44127;BME280;29786;50.798;7.302;2023-07-31T01:36:27;98880;;;17.1;100
44127;BME280;29786;50.798;7.302;2023-07-31T01:37:28;98880;;;17.07;100
44127;BME280;29786;50.798;7.302;2023-07-31T01:38:27;98870;;;17.1;100
44127;BME280;29786;50.798;7.302;2023-07-31T01:39:27;98870;;;17.1;100
44127;BME280;29786;50.798;7.302;2023-07-31T01:40:27;98880;;;17.14;100
44127;BME280;29786;50.798;7.302;2023-07-31T01:41:28;98890;;;17.12;100
44127;BME280;29786;50.798;7.302;2023-07-31T01:42:27;98890;;;17.16;100
44127;BME280;29786;50.798;7.302;2023-07-31T01:43:27;98880;;;17.15;100
44127;BME280;29786;50.798;7.302;2023-07-31T01:44:27;98880;;;17.14;100
44127;BME280;29786;50.798;7.302;2023-07-31T01:45:28;98880;;;17.14;100
44127;BME280;29786;50.798;7.302;2023-07-31T01:46:27;98880;;;17.08;100
44127;BME280;29786;50.798;7.302;2023-07-31T01:47:27;98880;;;17.02;100
44127;BME280;29786;50.798;7.302;2023-07-31T01:48:28;98880;;;16.99;100
44127;BME280;29786;50.798;7.302;2023-07-31T01:49:28;98880;;;16.94;100
44127;BME280;29786;50.798;7.302;2023-07-31T01:50:29;98880;;;16.91;100
44127;BME280;29786;50.798;7.302;2023-07-31T01:51:27;98880;;;16.85;100
44127;BME280;29786;50.798;7.302;2023-07-31T01:52:27;98880;;;16.81;100
44127;BME280;29786;50.798;7.302;2023-07-31T01:53:30;98880;;;16.76;100
44127;BME280;29786;50.798;7.302;2023-07-31T01:55:27;98880;;;16.68;100
44127;BME280;29786;50.798;7.302;2023-07-31T01:56:27;98880;;;16.65;100
44127;BME280;29786;50.798;7.302;2023-07-31T01:57:27;98870;;;16.61;100
44127;BME280;29786;50.798;7.302;2023-07-31T01:58:28;98880;;;16.61;100
44127;BME280;29786;50.798;7.302;2023-07-31T01:59:27;98880;;;16.62;100
44127;BME280;29786;50.798;7.302;2023-07-31T02:00:27;98870;;;16.58;100
44127;BME280;29786;50.798;7.302;2023-07-31T02:01:27;98870;;;16.54;100
44127;BME280;29786;50.798;7.302;2023-07-31T02:02:27;98870;;;16.56;100
44127;BME280;29786;50.798;7.302;2023-07-31T02:03:27;98870;;;16.54;100
44127;BME280;29786;50.798;7.302;2023-07-31T02:04:27;98870;;;16.51;100
44127;BME280;29786;50.798;7.302;2023-07-31T02:05:27;98870;;;16.52;100
44127;BME280;29786;50.798;7.302;2023-07-31T02:06:27;98870;;;16.54;100
44127;BME280;29786;50.798;7.302;2023-07-31T02:07:28;98870;;;16.56;100
44127;BME280;29786;50.798;7.302;2023-07-31T02:08:27;98870;;;16.53;100
44127;BME280;29786;50.798;7.302;2023-07-31T02:09:28;98870;;;16.52;100
44127;BME280;29786;50.798;7.302;2023-07-31T02:10:27;98870;;;16.53;100
44127;BME280;29786;50.798;7.302;2023-07-31T02:11:28;98870;;;16.54;100
44127;BME280;29786;50.798;7.302;2023-07-31T02:12:27;98870;;;16.5;100
44127;BME280;29786;50.798;7.302;2023-07-31T02:13:27;98870;;;16.51;100
44127;BME280;29786;50.798;7.302;2023-07-31T02:14:27;98870;;;16.5;100
44127;BME280;29786;50.798;7.302;2023-07-31T02:15:28;98870;;;16.52;100
44127;BME280;29786;50.798;7.302;2023-07-31T02:16:26;98860;;;16.45;100
44127;BME280;29786;50.798;7.302;2023-07-31T02:17:27;98870;;;16.41;100
44127;BME280;29786;50.798;7.302;2023-07-31T02:18:27;98860;;;16.4;100
44127;BME280;29786;50.798;7.302;2023-07-31T02:19:27;98860;;;16.42;100
44127;BME280;29786;50.798;7.302;2023-07-31T02:20:27;98860;;;16.45;100
44127;BME280;29786;50.798;7.302;2023-07-31T02:21:27;98860;;;16.48;100
44127;BME280;29786;50.798;7.302;2023-07-31T02:22:27;98860;;;16.46;100
44127;BME280;29786;50.798;7.302;2023-07-31T02:23:27;98860;;;16.5;100
44127;BME280;29786;50.798;7.302;2023-07-31T02:24:28;98860;;;16.52;100
44127;BME280;29786;50.798;7.302;2023-07-31T02:25:27;98850;;;16.52;100
44127;BME280;29786;50.798;7.302;2023-07-31T02:26:27;98850;;;16.52;100
44127;BME280;29786;50.798;7.302;2023-07-31T02:27:28;98860;;;16.51;100
44127;BME280;29786;50.798;7.302;2023-07-31T02:28:28;98850;;;16.53;100
44127;BME280;29786;50.798;7.302;2023-07-31T02:29:27;98850;;;16.51;100
44127;BME280;29786;50.798;7.302;2023-07-31T02:30:27;98850;;;16.53;100
44127;BME280;29786;50.798;7.302;2023-07-31T02:31:28;98850;;;16.53;100
44127;BME280;29786;50.798;7.302;2023-07-31T02:32:27;98850;;;16.52;100
44127;BME280;29786;50.798;7.302;2023-07-31T02:33:27;98850;;;16.53;100
44127;BME280;29786;50.798;7.302;2023-07-31T02:34:27;98850;;;16.54;100
44127;BME280;29786;50.798;7.302;2023-07-31T02:35:27;98850;;;16.54;100
44127;BME280;29786;50.798;7.302;2023-07-31T02:36:28;98850;;;16.56;100
44127;BME280;29786;50.798;7.302;2023-07-31T02:37:27;98840;;;16.54;100
44127;BME280;29786;50.798;7.302;2023-07-31T02:38:27;98840;;;16.56;100
44127;BME280;29786;50.798;7.302;2023-07-31T02:39:27;98840;;;16.59;100
44127;BME280;29786;50.798;7.302;2023-07-31T02:40:28;98840;;;16.61;100
44127;BME280;29786;50.798;7.302;2023-07-31T02:41:27;98840;;;16.65;100
44127;BME280;29786;50.798;7.302;2023-07-31T02:42:28;98840;;;16.61;100
44127;BME280;29786;50.798;7.302;2023-07-31T02:43:27;98840;;;16.65;100
44127;BME280;29786;50.798;7.302;2023-07-31T02:44:27;98840;;;16.66;100
44127;BME280;29786;50.798;7.302;2023-07-31T02:45:27;98840;;;16.64;100
44127;BME280;29786;50.798;7.302;2023-07-31T02:46:27;98840;;;16.64;100
44127;BME280;29786;50.798;7.302;2023-07-31T02:47:27;98830;;;16.64;100
44127;BME280;29786;50.798;7.302;2023-07-31T02:48:27;98830;;;16.66;100
44127;BME280;29786;50.798;7.302;2023-07-31T02:49:29;98830;;;16.62;100
44127;BME280;29786;50.798;7.302;2023-07-31T02:50:28;98830;;;16.66;100
44127;BME280;29786;50.798;7.302;2023-07-31T02:51:27;98830;;;16.65;100
44127;BME280;29786;50.798;7.302;2023-07-31T02:52:28;98830;;;16.65;100
44127;BME280;29786;50.798;7.302;2023-07-31T02:54:28;98830;;;16.64;100
44127;BME280;29786;50.798;7.302;2023-07-31T02:55:27;98830;;;16.67;100
44127;BME280;29786;50.798;7.302;2023-07-31T02:56:27;98830;;;16.67;100
44127;BME280;29786;50.798;7.302;2023-07-31T02:57:27;98830;;;16.67;100
44127;BME280;29786;50.798;7.302;2023-07-31T02:58:28;98820;;;16.69;100
44127;BME280;29786;50.798;7.302;2023-07-31T02:59:27;98820;;;16.71;100
44127;BME280;29786;50.798;7.302;2023-07-31T03:00:28;98820;;;16.67;100
44127;BME280;29786;50.798;7.302;2023-07-31T03:01:28;98830;;;16.68;100
44127;BME280;29786;50.798;7.302;2023-07-31T03:02:27;98820;;;16.69;100
44127;BME280;29786;50.798;7.302;2023-07-31T03:03:27;98820;;;16.71;100
44127;BME280;29786;50.798;7.302;2023-07-31T03:04:27;98820;;;16.74;100
44127;BME280;29786;50.798;7.302;2023-07-31T03:05:28;98820;;;16.77;100
44127;BME280;29786;50.798;7.302;2023-07-31T03:06:27;98820;;;16.75;100
44127;BME280;29786;50.798;7.302;2023-07-31T03:07:27;98820;;;16.73;100
44127;BME280;29786;50.798;7.302;2023-07-31T03:08:27;98820;;;16.75;100
44127;BME280;29786;50.798;7.302;2023-07-31T03:09:27;98810;;;16.78;100
44127;BME280;29786;50.798;7.302;2023-07-31T03:10:27;98820;;;16.79;100
44127;BME280;29786;50.798;7.302;2023-07-31T03:11:27;98820;;;16.82;100
44127;BME280;29786;50.798;7.302;2023-07-31T03:12:27;98820;;;16.81;100
44127;BME280;29786;50.798;7.302;2023-07-31T03:13:27;98820;;;16.81;100
44127;BME280;29786;50.798;7.302;2023-07-31T03:14:27;98820;;;16.79;100
44127;BME280;29786;50.798;7.302;2023-07-31T03:15:27;98820;;;16.84;100
44127;BME280;29786;50.798;7.302;2023-07-31T03:16:27;98820;;;16.86;100
44127;BME280;29786;50.798;7.302;2023-07-31T03:17:27;98820;;;16.86;100
44127;BME280;29786;50.798;7.302;2023-07-31T03:18:27;98820;;;16.87;100
44127;BME280;29786;50.798;7.302;2023-07-31T03:19:30;98820;;;16.89;100
44127;BME280;29786;50.798;7.302;2023-07-31T03:20:27;98810;;;16.87;100
44127;BME280;29786;50.798;7.302;2023-07-31T03:21:27;98820;;;16.87;100
44127;BME280;29786;50.798;7.302;2023-07-31T03:22:27;98810;;;16.87;100
44127;BME280;29786;50.798;7.302;2023-07-31T03:23:26;98810;;;16.86;100
44127;BME280;29786;50.798;7.302;2023-07-31T03:24:28;98810;;;16.87;100
44127;BME280;29786;50.798;7.302;2023-07-31T03:25:27;98810;;;16.9;100
44127;BME280;29786;50.798;7.302;2023-07-31T03:26:27;98810;;;16.91;100
44127;BME280;29786;50.798;7.302;2023-07-31T03:27:27;98810;;;16.93;100
44127;BME280;29786;50.798;7.302;2023-07-31T03:28:28;98810;;;16.92;100
44127;BME280;29786;50.798;7.302;2023-07-31T03:29:27;98810;;;16.92;100
44127;BME280;29786;50.798;7.302;2023-07-31T03:30:27;98810;;;16.93;100
44127;BME280;29786;50.798;7.302;2023-07-31T03:31:27;98810;;;16.92;100
44127;BME280;29786;50.798;7.302;2023-07-31T03:32:28;98800;;;16.91;100
44127;BME280;29786;50.798;7.302;2023-07-31T03:33:27;98810;;;16.92;100
44127;BME280;29786;50.798;7.302;2023-07-31T03:34:27;98800;;;16.93;100
44127;BME280;29786;50.798;7.302;2023-07-31T03:35:28;98810;;;16.94;100
44127;BME280;29786;50.798;7.302;2023-07-31T03:36:27;98800;;;16.94;100
44127;BME280;29786;50.798;7.302;2023-07-31T03:37:27;98800;;;16.94;100
44127;BME280;29786;50.798;7.302;2023-07-31T03:38:28;98800;;;16.95;100
44127;BME280;29786;50.798;7.302;2023-07-31T03:39:27;98800;;;16.94;100
44127;BME280;29786;50.798;7.302;2023-07-31T03:40:27;98790;;;16.95;100
44127;BME280;29786;50.798;7.302;2023-07-31T03:41:27;98790;;;16.95;100
44127;BME280;29786;50.798;7.302;2023-07-31T03:42:27;98800;;;16.95;100
44127;BME280;29786;50.798;7.302;2023-07-31T03:43:27;98800;;;16.92;100
44127;BME280;29786;50.798;7.302;2023-07-31T03:44:27;98790;;;16.93;100
44127;BME280;29786;50.798;7.302;2023-07-31T03:45:27;98790;;;16.95;100
44127;BME280;29786;50.798;7.302;2023-07-31T03:46:27;98790;;;16.95;100
44127;BME280;29786;50.798;7.302;2023-07-31T03:47:27;98790;;;16.96;100
44127;BME280;29786;50.798;7.302;2023-07-31T03:48:27;98790;;;17.01;100
44127;BME280;29786;50.798;7.302;2023-07-31T03:49:28;98780;;;17.01;100
44127;BME280;29786;50.798;7.302;2023-07-31T03:50:28;98780;;;17.02;100
44127;BME280;29786;50.798;7.302;2023-07-31T03:51:27;98780;;;17.03;100
44127;BME280;29786;50.798;7.302;2023-07-31T03:52:28;98790;;;17.02;100
44127;BME280;29786;50.798;7.302;2023-07-31T03:53:27;98780;;;17.03;100
44127;BME280;29786;50.798;7.302;2023-07-31T03:54:27;98780;;;17.04;100
44127;BME280;29786;50.798;7.302;2023-07-31T03:55:27;98780;;;17.06;100
44127;BME280;29786;50.798;7.302;2023-07-31T03:56:27;98780;;;17.04;100
44127;BME280;29786;50.798;7.302;2023-07-31T03:57:28;98770;;;17.04;100
44127;BME280;29786;50.798;7.302;2023-07-31T03:58:27;98770;;;17.06;100
44127;BME280;29786;50.798;7.302;2023-07-31T03:59:27;98780;;;17.08;100
44127;BME280;29786;50.798;7.302;2023-07-31T04:00:27;98780;;;17.1;100
44127;BME280;29786;50.798;7.302;2023-07-31T04:01:27;98780;;;17.12;100
44127;BME280;29786;50.798;7.302;2023-07-31T04:02:27;98780;;;17.12;100
44127;BME280;29786;50.798;7.302;2023-07-31T04:03:28;98770;;;17.12;100
44127;BME280;29786;50.798;7.302;2023-07-31T04:04:27;98770;;;17.11;100
44127;BME280;29786;50.798;7.302;2023-07-31T04:05:29;98780;;;17.1;100
44127;BME280;29786;50.798;7.302;2023-07-31T04:06:27;98770;;;17.11;100
44127;BME280;29786;50.798;7.302;2023-07-31T04:07:27;98770;;;17.12;100
44127;BME280;29786;50.798;7.302;2023-07-31T04:08:26;98770;;;17.12;100
44127;BME280;29786;50.798;7.302;2023-07-31T04:09:27;98770;;;17.15;100
44127;BME280;29786;50.798;7.302;2023-07-31T04:10:27;98770;;;17.14;100
44127;BME280;29786;50.798;7.302;2023-07-31T04:11:28;98770;;;17.12;100
44127;BME280;29786;50.798;7.302;2023-07-31T04:12:27;98770;;;17.12;100
44127;BME280;29786;50.798;7.302;2023-07-31T04:13:29;98770;;;17.14;100
44127;BME280;29786;50.798;7.302;2023-07-31T04:14:27;98770;;;17.16;100
44127;BME280;29786;50.798;7.302;2023-07-31T04:15:27;98770;;;17.17;100
44127;BME280;29786;50.798;7.302;2023-07-31T04:16:28;98780;;;17.19;100
44127;BME280;29786;50.798;7.302;2023-07-31T04:17:27;98770;;;17.21;100
44127;BME280;29786;50.798;7.302;2023-07-31T04:18:27;98770;;;17.2;100
44127;BME280;29786;50.798;7.302;2023-07-31T04:19:27;98770;;;17.21;100
44127;BME280;29786;50.798;7.302;2023-07-31T04:20:27;98770;;;17.2;100
44127;BME280;29786;50.798;7.302;2023-07-31T04:21:28;98770;;;17.2;100
44127;BME280;29786;50.798;7.302;2023-07-31T04:22:27;98760;;;17.19;100
44127;BME280;29786;50.798;7.302;2023-07-31T04:23:28;98770;;;17.24;100
44127;BME280;29786;50.798;7.302;2023-07-31T04:24:27;98770;;;17.2;100
44127;BME280;29786;50.798;7.302;2023-07-31T04:25:27;98770;;;17.23;100
44127;BME280;29786;50.798;7.302;2023-07-31T04:26:27;98770;;;17.24;100
44127;BME280;29786;50.798;7.302;2023-07-31T04:27:27;98770;;;17.25;100
44127;BME280;29786;50.798;7.302;2023-07-31T04:28:27;98770;;;17.29;100
44127;BME280;29786;50.798;7.302;2023-07-31T04:29:27;98770;;;17.25;100
44127;BME280;29786;50.798;7.302;2023-07-31T04:30:26;98770;;;17.23;100
44127;BME280;29786;50.798;7.302;2023-07-31T04:31:28;98770;;;17.24;100
44127;BME280;29786;50.798;7.302;2023-07-31T04:32:27;98770;;;17.28;100
44127;BME280;29786;50.798;7.302;2023-07-31T04:33:27;98770;;;17.27;100
44127;BME280;29786;50.798;7.302;2023-07-31T04:34:27;98770;;;17.34;100
44127;BME280;29786;50.798;7.302;2023-07-31T04:35:28;98770;;;17.34;100
44127;BME280;29786;50.798;7.302;2023-07-31T04:36:27;98770;;;17.29;100
44127;BME280;29786;50.798;7.302;2023-07-31T04:37:28;98770;;;17.32;100
44127;BME280;29786;50.798;7.302;2023-07-31T04:38:27;98770;;;17.29;100
44127;BME280;29786;50.798;7.302;2023-07-31T04:39:28;98770;;;17.34;100
44127;BME280;29786;50.798;7.302;2023-07-31T04:40:28;98770;;;17.29;100
44127;BME280;29786;50.798;7.302;2023-07-31T04:41:28;98770;;;17.26;100
44127;BME280;29786;50.798;7.302;2023-07-31T04:42:27;98770;;;17.28;100
44127;BME280;29786;50.798;7.302;2023-07-31T04:43:27;98770;;;17.32;100
44127;BME280;29786;50.798;7.302;2023-07-31T04:44:29;98770;;;17.31;100
44127;BME280;29786;50.798;7.302;2023-07-31T04:45:27;98770;;;17.25;100
44127;BME280;29786;50.798;7.302;2023-07-31T04:46:27;98770;;;17.26;100
44127;BME280;29786;50.798;7.302;2023-07-31T04:47:28;98770;;;17.27;100
44127;BME280;29786;50.798;7.302;2023-07-31T04:48:28;98770;;;17.33;100
44127;BME280;29786;50.798;7.302;2023-07-31T04:49:27;98770;;;17.4;100
44127;BME280;29786;50.798;7.302;2023-07-31T04:50:27;98770;;;17.41;100
44127;BME280;29786;50.798;7.302;2023-07-31T04:51:27;98770;;;17.41;100
44127;BME280;29786;50.798;7.302;2023-07-31T04:52:28;98770;;;17.37;100
44127;BME280;29786;50.798;7.302;2023-07-31T04:53:27;98770;;;17.41;100
44127;BME280;29786;50.798;7.302;2023-07-31T04:54:27;98770;;;17.45;100
44127;BME280;29786;50.798;7.302;2023-07-31T04:55:27;98770;;;17.45;100
44127;BME280;29786;50.798;7.302;2023-07-31T04:56:27;98770;;;17.42;100
44127;BME280;29786;50.798;7.302;2023-07-31T04:57:27;98760;;;17.42;100
44127;BME280;29786;50.798;7.302;2023-07-31T04:58:27;98760;;;17.45;100
44127;BME280;29786;50.798;7.302;2023-07-31T04:59:28;98770;;;17.44;100
44127;BME280;29786;50.798;7.302;2023-07-31T05:00:27;98770;;;17.45;100
44127;BME280;29786;50.798;7.302;2023-07-31T05:01:27;98770;;;17.43;100
44127;BME280;29786;50.798;7.302;2023-07-31T05:02:27;98770;;;17.49;100
44127;BME280;29786;50.798;7.302;2023-07-31T05:03:27;98770;;;17.4;100
44127;BME280;29786;50.798;7.302;2023-07-31T05:04:27;98770;;;17.46;100
44127;BME280;29786;50.798;7.302;2023-07-31T05:05:27;98770;;;17.45;100
44127;BME280;29786;50.798;7.302;2023-07-31T05:06:27;98770;;;17.51;100
44127;BME280;29786;50.798;7.302;2023-07-31T05:07:28;98770;;;17.52;100
44127;BME280;29786;50.798;7.302;2023-07-31T05:08:28;98760;;;17.54;100
44127;BME280;29786;50.798;7.302;2023-07-31T05:09:28;98760;;;17.48;100
44127;BME280;29786;50.798;7.302;2023-07-31T05:10:27;98760;;;17.48;100
44127;BME280;29786;50.798;7.302;2023-07-31T05:11:27;98760;;;17.45;100
44127;BME280;29786;50.798;7.302;2023-07-31T05:12:27;98760;;;17.46;100
44127;BME280;29786;50.798;7.302;2023-07-31T05:13:27;98760;;;17.5;100
44127;BME280;29786;50.798;7.302;2023-07-31T05:14:27;98750;;;17.52;100
44127;BME280;29786;50.798;7.302;2023-07-31T05:15:27;98750;;;17.6;100
44127;BME280;29786;50.798;7.302;2023-07-31T05:16:26;98750;;;17.65;100
44127;BME280;29786;50.798;7.302;2023-07-31T05:17:27;98750;;;17.66;100
44127;BME280;29786;50.798;7.302;2023-07-31T05:18:27;98750;;;17.68;100
44127;BME280;29786;50.798;7.302;2023-07-31T05:19:28;98750;;;17.67;100
44127;BME280;29786;50.798;7.302;2023-07-31T05:20:27;98750;;;17.64;100
44127;BME280;29786;50.798;7.302;2023-07-31T05:21:28;98750;;;17.64;100
44127;BME280;29786;50.798;7.302;2023-07-31T05:22:28;98750;;;17.6;100
44127;BME280;29786;50.798;7.302;2023-07-31T05:23:27;98750;;;17.62;100
44127;BME280;29786;50.798;7.302;2023-07-31T05:24:27;98740;;;17.62;100
44127;BME280;29786;50.798;7.302;2023-07-31T05:25:27;98740;;;17.68;100
44127;BME280;29786;50.798;7.302;2023-07-31T05:26:28;98740;;;17.68;100
44127;BME280;29786;50.798;7.302;2023-07-31T05:27:27;98730;;;17.66;100
44127;BME280;29786;50.798;7.302;2023-07-31T05:28:28;98740;;;17.65;100
44127;BME280;29786;50.798;7.302;2023-07-31T05:29:27;98730;;;17.61;100
44127;BME280;29786;50.798;7.302;2023-07-31T05:30:29;98730;;;17.62;100
44127;BME280;29786;50.798;7.302;2023-07-31T05:31:27;98730;;;17.62;100
44127;BME280;29786;50.798;7.302;2023-07-31T05:32:27;98730;;;17.73;100
44127;BME280;29786;50.798;7.302;2023-07-31T05:33:27;98740;;;17.74;100
44127;BME280;29786;50.798;7.302;2023-07-31T05:34:27;98730;;;17.78;100
44127;BME280;29786;50.798;7.302;2023-07-31T05:35:27;98730;;;17.81;100
44127;BME280;29786;50.798;7.302;2023-07-31T05:36:27;98730;;;17.86;100
44127;BME280;29786;50.798;7.302;2023-07-31T05:37:27;98730;;;17.9;100
44127;BME280;29786;50.798;7.302;2023-07-31T05:38:27;98740;;;17.9;100
44127;BME280;29786;50.798;7.302;2023-07-31T05:39:27;98730;;;17.94;100
44127;BME280;29786;50.798;7.302;2023-07-31T05:40:28;98730;;;17.91;100
44127;BME280;29786;50.798;7.302;2023-07-31T05:41:28;98730;;;17.85;100
44127;BME280;29786;50.798;7.302;2023-07-31T05:42:27;98730;;;17.79;100
44127;BME280;29786;50.798;7.302;2023-07-31T05:43:27;98730;;;17.81;100